Time;durP1;ratioP1;P1;durP2;ratioP2;P2;SDS_P1;SDS_P2;PMS_P1;PMS_P2;Temp;Humidity;BMP_temperature;BMP_pressure;BME280_temperature;BME280_humidity;BME280_pressure;Samples;Min_cycle;Max_cycle;Signal;HPM_P1;HPM_P2
2021/10/03 00:01:16;;;;;;;8.75;7.10;;;;;;;10.06;65.15;95150.86;827491;71;32681;-75
2021/10/03 00:16:09;;;;;;;10.03;7.55;;;;;;;9.96;65.35;95153.52;828246;71;29782;-76
2021/10/03 00:31:14;;;;;;;9.45;7.80;;;;;;;9.85;65.61;95155.89;827350;71;33002;-74
2021/10/03 00:46:13;;;;;;;7.58;6.75;;;;;;;9.70;66.08;95150.16;835481;71;32696;-76
2021/10/03 01:01:09;;;;;;;8.63;7.08;;;;;;;9.58;66.15;95138.66;828031;71;30225;-74
2021/10/03 01:16:09;;;;;;;7.67;6.65;;;;;;;9.45;66.78;95137.87;829807;71;29721;-77
2021/10/03 01:31:16;;;;;;;7.45;6.75;;;;;;;9.31;67.50;95135.03;827608;71;32707;-76
2021/10/03 01:46:15;;;;;;;9.48;6.28;;;;;;;9.20;67.49;95131.61;833906;71;32797;-76
2021/10/03 02:01:11;;;;;;;8.20;6.62;;;;;;;9.12;67.55;95126.91;828334;71;29652;-75
2021/10/03 02:16:08;;;;;;;7.05;6.33;;;;;;;8.99;67.76;95124.30;829130;71;29464;-76
2021/10/03 02:31:16;;;;;;;7.35;6.65;;;;;;;8.88;68.11;95114.85;833942;71;32684;-76
2021/10/03 02:46:09;;;;;;;7.55;6.80;;;;;;;8.80;68.42;95122.19;833876;71;29499;-77
2021/10/03 03:16:08;;;;;;;7.87;6.65;;;;;;;8.57;68.98;95129.98;833902;71;29662;-75
2021/10/03 03:31:09;;;;;;;8.00;6.72;;;;;;;8.45;69.21;95116.89;833982;71;30273;-76
2021/10/03 03:46:08;;;;;;;8.45;6.03;;;;;;;8.33;69.61;95110.55;828181;71;29741;-75
2021/10/03 04:01:14;;;;;;;8.50;6.60;;;;;;;8.25;69.87;95109.74;827398;71;32732;-77
2021/10/03 09:16:37;;;;;;;7.73;7.03;;;;;;;23.98;33.77;95146.69;821624;71;30400;-74
2021/10/03 11:01:13;;;;;;;6.70;6.10;;;;;;;23.52;33.74;95048.81;830086;71;29760;-78
2021/10/03 11:32:00;;;;;;;;;;;;;;;;;;;;;
2021/10/03 12:31:50;;;;;;;6.33;5.47;;;;;;;23.63;33.21;94961.93;809238;72;32762;-79
2021/10/03 12:46:09;;;;;;;5.17;4.67;;;;;;;23.55;32.72;94944.97;828094;71;30244;-77
2021/10/03 13:01:18;;;;;;;5.60;4.30;;;;;;;23.31;33.07;94948.80;827451;71;33194;-78
2021/10/03 13:16:09;;;;;;;6.40;4.67;;;;;;;22.86;32.67;94945.71;833840;71;30254;-77
2021/10/03 13:31:15;;;;;;;3.30;3.10;;;;;;;22.55;27.58;94939.98;827253;71;32722;-78
2021/10/03 13:46:14;;;;;;;3.53;3.33;;;;;;;21.97;30.12;94938.78;821954;71;32753;-78
2021/10/03 14:01:12;;;;;;;3.43;3.13;;;;;;;22.06;29.72;94939.95;822147;71;32113;-78
2021/10/03 14:16:08;;;;;;;2.87;2.67;;;;;;;21.84;29.87;94928.56;822054;71;29765;-79
2021/10/03 14:31:08;;;;;;;3.40;2.80;;;;;;;21.41;28.96;94927.01;824928;71;29691;-77
2021/10/03 14:46:15;;;;;;;8.53;5.15;;;;;;;20.78;34.77;94929.89;827396;71;33192;-77
2021/10/03 15:16:12;;;;;;;5.28;4.80;;;;;;;19.90;38.92;94940.37;828337;71;32501;-75
2021/10/03 15:31:15;;;;;;;6.67;4.90;;;;;;;19.43;40.60;94950.16;828524;71;33419;-78
2021/10/03 15:46:08;;;;;;;8.60;5.62;;;;;;;18.93;41.64;94950.63;828179;71;29746;-79
2021/10/03 16:01:15;;;;;;;5.00;4.60;;;;;;;18.43;42.82;94960.88;834938;71;32659;-79
2021/10/03 16:16:20;;;;;;;8.75;7.00;;;;;;;17.66;43.61;94957.61;833948;71;32784;-78
2021/10/03 16:31:10;;;;;;;7.72;6.95;;;;;;;17.43;45.09;94992.38;828778;71;30290;-75
2021/10/03 16:46:15;;;;;;;10.13;7.00;;;;;;;16.97;46.21;95004.52;828269;71;32657;-76
2021/10/03 17:01:10;;;;;;;9.95;7.10;;;;;;;16.62;47.05;95005.87;828373;71;30361;-76
2021/10/03 17:16:13;;;;;;;10.10;8.20;;;;;;;16.30;48.22;95007.91;834114;71;32617;-76
2021/10/03 17:31:09;;;;;;;9.30;8.25;;;;;;;15.86;49.75;95023.49;828235;71;29773;-77
2021/10/03 17:46:08;;;;;;;21.87;13.55;;;;;;;18.57;52.97;95041.64;834101;71;30224;-77
2021/10/03 18:01:10;;;;;;;9.90;8.48;;;;;;;16.77;48.44;95031.90;828781;71;29807;-77
2021/10/03 18:16:39;;;;;;;15.90;11.05;;;;;;;15.66;51.29;95067.91;793859;74;33327;-77
2021/10/03 18:31:15;;;;;;;12.70;9.85;;;;;;;15.02;51.75;95067.66;820300;71;32838;-78
2021/10/03 18:46:09;;;;;;;12.25;8.75;;;;;;;14.61;52.52;95077.05;823222;71;29887;-77
2021/10/03 19:01:25;;;;;;;11.78;9.58;;;;;;;14.33;52.98;95074.44;827514;71;32674;-76
2021/10/03 19:31:50;;;;;;;14.63;11.43;;;;;;;13.92;54.77;95087.15;794371;73;32890;-76
2021/10/03 19:46:21;;;;;;;18.65;14.60;;;;;;;13.69;56.32;95089.45;825293;71;32955;-76
2021/10/03 20:01:12;;;;;;;19.00;12.90;;;;;;;13.50;57.40;95095.56;828233;71;30801;-77
2021/10/03 20:46:09;;;;;;;13.10;9.63;;;;;;;12.76;59.41;95129.12;817832;71;30412;-77
2021/10/03 21:17:00;;;;;;;11.22;9.00;;;;;;;12.42;59.84;95132.72;780684;69;33577;-78
2021/10/03 21:31:16;;;;;;;13.15;10.43;;;;;;;12.30;59.93;95130.27;833725;71;33248;-77
2021/10/03 21:46:10;;;;;;;10.35;8.95;;;;;;;12.17;59.87;95129.11;828409;71;30048;-78
2021/10/03 22:16:08;;;;;;;11.48;8.23;;;;;;;11.91;61.01;95141.22;834194;71;30115;-77
2021/10/03 22:46:10;;;;;;;8.65;7.75;;;;;;;11.58;61.37;95154.67;828285;71;28922;-76
2021/10/03 23:01:14;;;;;;;7.35;6.03;;;;;;;11.46;61.96;95165.55;828340;71;31749;-78
2021/10/03 23:16:13;;;;;;;7.37;6.67;;;;;;;11.29;62.20;95164.62;828904;71;31281;-78
2021/10/03 23:31:14;;;;;;;8.83;6.70;;;;;;;11.19;62.84;95153.69;834154;71;31833;-77
2021/10/03 23:46:19;;;;;;;6.83;6.10;;;;;;;11.05;63.08;95165.88;801078;74;31910;-79
